Terminal Aerodrome Forecast
Issued by NWS Bismarck, ND

Home | Current Version | Previous Version | Text Only | Print | Product List | Glossary On
Versions: 1 2 3 4 5 6 7 8 9 10 11 12 13 14 15 16 17 18 19 20
000
FTUS43 KBIS 241100 AAB
TAFISN
TAF AMD
KISN 241108Z 2411/2506 21010G23KT 2SM +RA FEW025 BKN035
      TEMPO 2411/2412 5SM -TSRA BKN025CB
     FM241200 34015G30KT P6SM BKN050
     FM241400 13010KT P6SM SCT050
     FM242300 15010KT P6SM BKN100=

USA.gov is the U.S. government's official web portal to all federal, state and local government web resources and services.